Capitol Logistics 235




KPHX
Phoenix Sky Harbor International Airport
Phoenix, Arizona
KMIA
Miami International Airport
Miami, Florida

Route Details

Aircraft Information
Group: Boeing Common
Types: B752,B762,B763
Route Data
Demand: V
Distance: 1713nm
Duration: 4h 00m
Recm'd Route: ECLPS1 PHASE ELP FST J86 LEV Y290 BLVNS Y290 BAGGS SSCOT5
Origin Wx: KPHX 242051Z 24011G14KT 10SM FEW250 35/M08 A2973 RMK AO2 SLP047 T03501083 57021
Dest. Wx: KMIA 242053Z 13010KT 10SM SCT039 SCT250 29/20 A3001 RMK AO2 SLP163 T02940200 56008 $
Notes:

Financial History
Total Freight: 597,060lbs
Average Load: 74,633lbs/flt
Fuel Used: 323,680lbs
Avg. Fuel Used: 40,460lbs/flt
Fuel Expense: $261,575
Avg. Fuel Expense: $32,697
Avg. Fuel Cost: $0.81/lbs
Total Gross Income: $906,419
Pilot Pay: $1,342
Total Expenses: $106,419
Total Revenue: $535,595
Average Revenue: $113,302.43